Time;durP1;ratioP1;P1;durP2;ratioP2;P2;SDS_P1;SDS_P2;PMS_P1;PMS_P2;Temp;Humidity;BMP_temperature;BMP_pressure;BME280_temperature;BME280_humidity;BME280_pressure;Samples;Min_cycle;Max_cycle;Signal;HPM_P1;HPM_P2
2022/01/12 00:01:56;;;;;;;16.13;9.70;;;3.70;99.90;;;;;;5034889;28;20461;-65
2022/01/12 00:04:26;;;;;;;14.37;9.00;;;3.70;99.90;;;;;;5034393;28;20466;-65
2022/01/12 00:06:54;;;;;;;10.77;8.90;;;3.70;99.90;;;;;;5034428;28;20442;-65
2022/01/12 00:09:25;;;;;;;11.60;8.73;;;3.70;99.90;;;;;;5034351;28;20450;-65
2022/01/12 00:11:55;;;;;;;11.37;9.43;;;3.70;99.90;;;;;;5034377;28;20430;-65
2022/01/12 00:14:29;;;;;;;12.40;8.10;;;3.70;99.90;;;;;;5034750;28;20458;-65
2022/01/12 00:16:59;;;;;;;13.33;9.70;;;3.60;99.90;;;;;;5033525;28;20475;-65
2022/01/12 00:19:29;;;;;;;12.40;9.10;;;3.60;99.90;;;;;;5034154;28;20451;-65
2022/01/12 00:21:56;;;;;;;11.87;8.70;;;3.60;99.90;;;;;;5034461;28;20454;-65
2022/01/12 00:24:29;;;;;;;11.77;8.17;;;3.60;99.90;;;;;;5034035;28;20532;-65
2022/01/12 00:35:13;;;;;;;10.07;6.90;;;3.60;99.90;;;;;;5034194;28;20452;-65
2022/01/12 00:37:40;;;;;;;9.67;8.13;;;3.60;99.90;;;;;;5033606;28;20541;-65
2022/01/12 00:40:11;;;;;;;13.03;7.77;;;3.60;99.90;;;;;;5034107;28;20450;-65
2022/01/12 00:42:38;;;;;;;12.03;8.83;;;3.60;99.90;;;;;;5033647;28;20450;-66
2022/01/12 00:45:08;;;;;;;11.70;8.57;;;3.60;99.90;;;;;;5033951;28;20474;-65
2022/01/12 00:47:37;;;;;;;13.37;7.40;;;3.60;99.90;;;;;;5034215;28;20529;-65
2022/01/12 00:50:08;;;;;;;9.50;7.77;;;3.70;99.90;;;;;;5033954;28;20450;-65
2022/01/12 00:52:35;;;;;;;11.97;8.97;;;3.70;99.90;;;;;;5033801;28;20446;-66
2022/01/12 00:55:03;;;;;;;12.07;8.17;;;3.70;99.90;;;;;;5033622;28;20430;-65
2022/01/12 00:57:36;;;;;;;11.60;8.27;;;3.70;99.90;;;;;;5033514;28;20533;-65
2022/01/12 01:00:07;;;;;;;16.60;8.10;;;3.70;99.90;;;;;;5033481;28;20484;-65
2022/01/12 01:02:34;;;;;;;11.30;8.30;;;3.60;99.90;;;;;;5033398;28;20508;-66
2022/01/12 01:05:02;;;;;;;11.10;7.73;;;3.60;99.90;;;;;;5033733;28;20453;-65
2022/01/12 01:07:30;;;;;;;11.80;8.13;;;3.60;99.90;;;;;;5033318;28;20452;-65
2022/01/12 01:10:04;;;;;;;9.83;7.80;;;3.60;99.90;;;;;;5033610;28;20542;-65
2022/01/12 01:12:34;;;;;;;13.13;9.37;;;3.50;99.90;;;;;;5033257;28;20439;-66
2022/01/12 01:15:08;;;;;;;11.63;7.67;;;3.50;99.90;;;;;;5033723;28;20447;-65
2022/01/12 01:25:55;;;;;;;13.83;8.20;;;3.40;99.90;;;;;;5033617;28;20434;-65
2022/01/12 01:28:24;;;;;;;13.80;8.70;;;3.50;99.90;;;;;;5033216;28;20435;-65
2022/01/12 01:30:51;;;;;;;13.70;7.70;;;3.50;99.90;;;;;;5033606;28;20450;-65
2022/01/12 01:33:20;;;;;;;11.00;8.93;;;3.60;99.90;;;;;;5034208;28;20524;-65
2022/01/12 01:35:54;;;;;;;16.07;8.63;;;3.60;99.90;;;;;;5036189;28;20505;-65
2022/01/12 01:38:22;;;;;;;12.10;7.87;;;3.70;99.90;;;;;;5045593;28;20450;-65
2022/01/12 01:40:49;;;;;;;14.20;9.47;;;3.70;99.90;;;;;;5041601;28;20461;-65
2022/01/12 01:43:24;;;;;;;12.17;7.80;;;3.80;99.90;;;;;;5034769;28;20478;-65
2022/01/12 01:54:10;;;;;;;10.90;8.03;;;3.90;99.90;;;;;;5032962;28;20442;-65
2022/01/12 01:56:43;;;;;;;15.00;9.20;;;3.90;99.90;;;;;;5033124;28;20516;-65
2022/01/12 01:59:13;;;;;;;9.50;8.50;;;3.90;99.90;;;;;;5033391;28;20454;-65
2022/01/12 02:01:41;;;;;;;10.00;8.20;;;3.90;99.90;;;;;;5033403;28;20450;-65
2022/01/12 02:04:12;;;;;;;10.60;8.73;;;3.90;99.90;;;;;;5032752;28;20470;-65
2022/01/12 02:06:42;;;;;;;11.10;8.00;;;4.00;99.90;;;;;;5032787;28;20530;-65
2022/01/12 02:09:09;;;;;;;11.93;7.93;;;4.00;99.90;;;;;;5032866;28;20944;-65
2022/01/12 02:11:39;;;;;;;12.43;8.23;;;4.00;99.90;;;;;;5032736;28;20477;-65
2022/01/12 02:14:08;;;;;;;12.00;8.03;;;4.00;99.90;;;;;;5033122;28;20472;-66
2022/01/12 02:16:50;;;;;;;14.80;9.17;;;4.00;99.90;;;;;;5032886;28;20565;-65
2022/01/12 02:19:43;;;;;;;13.50;9.93;;;4.00;99.90;;;;;;5033024;28;20467;-66
2022/01/12 02:36:15;;;;;;;11.60;9.30;;;3.80;99.90;;;;;;5032851;28;20458;-66
2022/01/12 02:41:35;;;;;;;12.00;9.07;;;3.70;99.90;;;;;;5036412;28;20418;-66
2022/01/12 02:55:01;;;;;;;9.47;7.40;;;3.70;99.90;;;;;;5035983;28;20402;-66
2022/01/12 02:57:28;;;;;;;8.67;7.30;;;3.80;99.90;;;;;;5035435;28;20567;-66
2022/01/12 03:02:42;;;;;;;13.80;8.53;;;3.80;99.90;;;;;;5035959;28;20435;-66
2022/01/12 03:05:33;;;;;;;14.03;8.33;;;3.80;99.90;;;;;;5035629;28;20423;-66
2022/01/12 03:08:11;;;;;;;11.23;7.50;;;3.90;99.90;;;;;;5035961;28;20481;-66
2022/01/12 03:10:42;;;;;;;8.70;7.77;;;3.90;99.90;;;;;;5035566;28;20426;-66
2022/01/12 03:13:19;;;;;;;11.37;8.47;;;3.90;99.90;;;;;;5035699;28;20458;-66
2022/01/12 03:15:56;;;;;;;16.00;8.70;;;4.00;99.90;;;;;;5036577;28;20514;-66
2022/01/12 03:18:24;;;;;;;10.43;8.00;;;4.00;99.90;;;;;;5035766;28;20504;-66
2022/01/12 03:20:51;;;;;;;11.20;8.27;;;4.00;99.90;;;;;;5035347;28;20504;-66
2022/01/12 03:23:19;;;;;;;10.73;8.00;;;4.00;99.90;;;;;;5035352;28;20471;-66
2022/01/12 03:25:51;;;;;;;10.13;7.90;;;4.00;99.90;;;;;;5035287;28;20439;-66
2022/01/12 03:28:19;;;;;;;11.90;8.90;;;4.00;99.90;;;;;;5035459;28;20522;-66
2022/01/12 03:30:53;;;;;;;10.73;7.80;;;4.00;99.90;;;;;;5035182;28;20553;-66
2022/01/12 03:33:36;;;;;;;10.80;8.60;;;3.90;99.90;;;;;;5035087;28;20461;-66
2022/01/12 03:36:24;;;;;;;12.23;7.73;;;3.80;99.90;;;;;;5035334;28;20840;-66
2022/01/12 03:38:54;;;;;;;10.30;8.40;;;3.80;99.90;;;;;;5035363;28;20473;-65
2022/01/12 03:41:26;;;;;;;11.03;7.90;;;3.80;99.90;;;;;;5035175;28;20446;-65
2022/01/12 03:43:54;;;;;;;10.23;7.67;;;3.80;99.90;;;;;;5034950;28;20998;-66
2022/01/12 03:46:25;;;;;;;13.27;8.40;;;3.70;99.90;;;;;;5034892;28;21051;-65
2022/01/12 03:48:52;;;;;;;13.60;8.00;;;3.80;99.90;;;;;;5034846;28;20920;-65
2022/01/12 03:51:23;;;;;;;9.40;7.70;;;3.90;99.90;;;;;;5033655;28;20948;-65
2022/01/12 03:53:50;;;;;;;10.27;7.60;;;4.00;99.90;;;;;;5034799;28;20972;-65
2022/01/12 03:56:22;;;;;;;10.40;7.43;;;4.00;99.90;;;;;;5034371;28;20556;-65
2022/01/12 03:58:49;;;;;;;10.40;6.93;;;4.00;99.90;;;;;;5034998;28;20773;-65
2022/01/12 04:01:18;;;;;;;10.83;7.60;;;4.10;99.90;;;;;;5034755;28;20937;-65
2022/01/12 04:03:57;;;;;;;12.33;8.70;;;4.10;99.90;;;;;;5034484;28;20506;-65
2022/01/12 04:09:14;;;;;;;10.67;7.30;;;4.20;99.90;;;;;;5034535;28;20464;-65
2022/01/12 04:11:43;;;;;;;10.43;7.47;;;4.20;99.90;;;;;;5034133;28;20537;-65
2022/01/12 04:14:10;;;;;;;11.73;7.60;;;4.20;99.90;;;;;;5034224;28;21044;-66
2022/01/12 04:16:39;;;;;;;8.80;7.30;;;4.20;99.90;;;;;;5034554;28;20577;-66
2022/01/12 04:19:07;;;;;;;11.27;8.20;;;4.20;99.90;;;;;;5034589;28;20451;-65
2022/01/12 04:21:41;;;;;;;8.60;7.27;;;4.30;99.90;;;;;;5034243;28;20454;-65
2022/01/12 04:24:10;;;;;;;11.77;8.50;;;4.30;99.90;;;;;;5033991;28;20477;-65
2022/01/12 04:26:41;;;;;;;9.70;6.67;;;4.30;99.90;;;;;;5034676;28;20888;-65
2022/01/12 04:29:13;;;;;;;8.60;7.47;;;4.40;99.90;;;;;;5034630;28;20951;-65
2022/01/12 04:31:41;;;;;;;14.23;8.17;;;4.40;99.90;;;;;;5034115;28;20430;-65
2022/01/12 04:34:09;;;;;;;10.10;7.20;;;4.40;99.90;;;;;;5034075;28;20605;-65
2022/01/12 04:36:37;;;;;;;13.30;7.20;;;4.40;99.90;;;;;;5034652;28;20482;-65
2022/01/12 04:39:08;;;;;;;10.00;7.47;;;4.50;99.90;;;;;;5035108;28;20453;-65
2022/01/12 04:41:37;;;;;;;10.70;7.40;;;4.50;99.90;;;;;;5035612;28;20445;-65
2022/01/12 04:44:07;;;;;;;14.83;6.67;;;4.50;99.90;;;;;;5034688;28;20478;-65
2022/01/12 04:46:50;;;;;;;9.90;7.30;;;4.40;99.90;;;;;;5034183;28;20522;-65
2022/01/12 04:49:47;;;;;;;8.43;6.90;;;4.40;99.90;;;;;;5034114;28;20530;-65
2022/01/12 04:52:15;;;;;;;8.53;6.80;;;4.40;99.90;;;;;;5034048;28;20431;-65
2022/01/12 04:54:43;;;;;;;10.93;6.73;;;4.40;99.90;;;;;;5033896;28;20848;-65
2022/01/12 04:57:16;;;;;;;11.20;7.17;;;4.40;99.90;;;;;;5033318;28;20482;-65
2022/01/12 05:00:00;;;;;;;8.53;7.27;;;4.40;99.90;;;;;;5033351;28;20447;-65
2022/01/12 05:08:11;;;;;;;9.17;7.07;;;4.50;99.90;;;;;;5034115;28;20426;-65
2022/01/12 05:13:32;;;;;;;6.93;6.23;;;4.50;99.90;;;;;;5013770;28;20800;-65
2022/01/12 05:16:00;;;;;;;9.53;7.00;;;4.50;99.90;;;;;;5033366;28;20426;-65
2022/01/12 05:18:29;;;;;;;7.83;6.97;;;4.60;99.90;;;;;;5033507;28;20496;-65
2022/01/12 05:20:57;;;;;;;9.63;8.17;;;4.50;99.90;;;;;;5033308;28;20902;-65
2022/01/12 05:23:25;;;;;;;10.43;8.10;;;4.60;99.90;;;;;;5033340;28;20500;-65
2022/01/12 05:25:53;;;;;;;18.93;10.60;;;4.60;99.90;;;;;;5033518;28;20460;-65
2022/01/12 05:28:22;;;;;;;14.23;10.50;;;4.60;99.90;;;;;;5033515;28;20430;-65
2022/01/12 05:30:54;;;;;;;12.30;8.83;;;4.60;99.90;;;;;;5033105;28;20442;-65
2022/01/12 05:33:23;;;;;;;11.07;9.30;;;4.60;99.90;;;;;;5033074;28;20462;-65
2022/01/12 05:35:53;;;;;;;10.50;9.17;;;4.60;99.90;;;;;;5033166;28;20446;-65
2022/01/12 05:38:23;;;;;;;9.43;8.07;;;4.60;99.90;;;;;;5032828;28;20478;-65
2022/01/12 05:40:55;;;;;;;12.10;8.30;;;4.60;99.90;;;;;;5032858;28;20511;-65
2022/01/12 05:43:26;;;;;;;11.13;7.13;;;4.60;99.90;;;;;;5032985;28;20470;-65
2022/01/12 05:45:55;;;;;;;9.60;7.90;;;4.60;99.90;;;;;;5033145;28;20624;-65
2022/01/12 05:51:12;;;;;;;11.00;8.73;;;4.60;99.90;;;;;;5033329;28;20888;-65
2022/01/12 05:53:40;;;;;;;13.60;8.60;;;4.60;99.90;;;;;;5033210;28;20463;-65
2022/01/12 05:56:08;;;;;;;13.43;10.40;;;4.60;99.90;;;;;;5033106;28;20454;-65
2022/01/12 05:58:40;;;;;;;14.87;9.73;;;4.60;99.90;;;;;;5032812;28;20539;-65
2022/01/12 06:01:08;;;;;;;11.30;8.63;;;4.60;99.90;;;;;;5032786;28;20430;-65
2022/01/12 06:03:36;;;;;;;9.80;8.30;;;4.60;99.90;;;;;;5032782;28;20481;-70
2022/01/12 06:06:08;;;;;;;8.30;7.40;;;4.60;99.90;;;;;;5032855;28;20447;-69
2022/01/12 06:08:40;;;;;;;11.63;7.60;;;4.60;99.90;;;;;;5032892;28;20431;-65
2022/01/12 06:11:10;;;;;;;12.37;8.27;;;4.50;99.90;;;;;;5032891;28;20426;-65
2022/01/12 06:13:37;;;;;;;9.80;7.40;;;4.60;99.90;;;;;;5033033;28;20560;-65
2022/01/12 06:16:08;;;;;;;12.40;7.80;;;4.60;99.90;;;;;;5035629;28;20446;-64
2022/01/12 06:18:38;;;;;;;9.10;7.80;;;4.60;99.90;;;;;;5036453;28;20477;-64
2022/01/12 06:21:05;;;;;;;11.20;6.87;;;4.50;99.90;;;;;;5036524;28;20430;-64
2022/01/12 06:23:40;;;;;;;8.43;7.30;;;4.60;99.90;;;;;;5036206;28;20517;-64
2022/01/12 06:26:13;;;;;;;9.90;7.67;;;4.60;99.90;;;;;;5037431;28;20481;-64
2022/01/12 06:28:52;;;;;;;13.73;6.37;;;4.60;99.90;;;;;;5036393;28;20422;-65
2022/01/12 06:31:26;;;;;;;16.57;8.07;;;4.60;99.90;;;;;;5036630;28;20851;-65
2022/01/12 06:33:56;;;;;;;10.40;7.87;;;4.60;99.90;;;;;;5036137;28;20466;-65
2022/01/12 06:36:23;;;;;;;9.13;7.30;;;4.60;99.90;;;;;;5036275;28;20430;-65
2022/01/12 06:38:53;;;;;;;14.67;7.33;;;4.60;99.90;;;;;;5036283;28;20478;-64
2022/01/12 06:41:22;;;;;;;10.00;8.30;;;4.60;99.90;;;;;;5036436;28;20454;-64
2022/01/12 06:43:50;;;;;;;11.50;8.47;;;4.70;99.90;;;;;;5035974;28;20470;-65
2022/01/12 06:46:24;;;;;;;15.93;8.53;;;4.70;99.90;;;;;;5036062;28;20461;-65
2022/01/12 06:48:51;;;;;;;17.03;7.87;;;4.70;99.90;;;;;;5036384;28;20489;-65
2022/01/12 06:51:19;;;;;;;10.63;7.53;;;4.70;99.90;;;;;;5035976;28;20450;-65
2022/01/12 06:53:46;;;;;;;11.43;7.53;;;4.70;99.90;;;;;;5035895;28;20466;-65
2022/01/12 06:56:15;;;;;;;10.70;8.17;;;4.70;99.90;;;;;;5036220;28;20855;-65
2022/01/12 06:58:44;;;;;;;9.93;7.00;;;4.70;99.90;;;;;;5035706;28;20488;-65
2022/01/12 07:01:12;;;;;;;10.50;7.80;;;4.70;99.90;;;;;;5035741;28;20451;-65
2022/01/12 07:03:42;;;;;;;14.93;7.57;;;4.70;99.90;;;;;;5035717;28;20477;-64
2022/01/12 07:06:11;;;;;;;10.40;7.40;;;4.80;99.90;;;;;;5035947;28;20437;-64
2022/01/12 07:08:38;;;;;;;9.10;7.73;;;4.80;99.90;;;;;;5035665;28;20442;-64
2022/01/12 07:11:06;;;;;;;11.53;8.00;;;4.80;99.90;;;;;;5035610;28;20435;-65
2022/01/12 07:13:35;;;;;;;11.90;8.10;;;4.80;99.90;;;;;;5035807;28;20462;-65
2022/01/12 07:16:08;;;;;;;8.47;7.53;;;4.80;99.90;;;;;;5035540;28;20504;-65
2022/01/12 07:18:38;;;;;;;10.83;7.53;;;4.80;99.90;;;;;;5035396;28;20475;-64
2022/01/12 07:21:08;;;;;;;12.53;9.10;;;4.80;99.90;;;;;;5035403;28;20449;-64
2022/01/12 07:23:35;;;;;;;15.10;9.57;;;4.80;99.90;;;;;;5035240;28;20482;-65
2022/01/12 07:26:03;;;;;;;14.90;10.50;;;4.80;99.90;;;;;;5035133;28;20445;-64
2022/01/12 07:28:33;;;;;;;9.80;8.43;;;4.80;99.90;;;;;;5035284;28;20442;-64
2022/01/12 07:31:01;;;;;;;13.73;10.63;;;4.80;99.90;;;;;;5035293;28;20438;-65
2022/01/12 07:33:29;;;;;;;17.03;13.63;;;4.80;99.90;;;;;;5035494;28;20478;-64
2022/01/12 07:35:58;;;;;;;17.23;13.17;;;4.80;99.90;;;;;;5035232;28;20451;-64
2022/01/12 07:38:26;;;;;;;17.90;14.23;;;4.80;99.90;;;;;;5035555;28;20561;-65
2022/01/12 07:40:53;;;;;;;16.93;15.13;;;4.80;99.90;;;;;;5035553;28;20453;-64
2022/01/12 07:43:20;;;;;;;17.13;13.60;;;4.80;99.90;;;;;;5036741;28;20470;-64
2022/01/12 07:45:47;;;;;;;15.23;13.60;;;4.80;99.90;;;;;;5035615;28;20504;-63
2022/01/12 07:48:56;;;;;;;14.17;11.90;;;4.80;99.90;;;;;;5035644;28;20466;-64
2022/01/12 07:51:40;;;;;;;14.37;10.30;;;4.80;99.90;;;;;;5035045;28;20446;-63
2022/01/12 07:54:10;;;;;;;15.37;9.87;;;4.70;99.90;;;;;;5034910;28;20470;-63
2022/01/12 07:56:37;;;;;;;14.47;10.17;;;4.70;99.90;;;;;;5034942;28;20447;-63
2022/01/12 07:59:05;;;;;;;11.33;9.37;;;4.80;99.90;;;;;;5035413;28;20471;-63
2022/01/12 08:01:35;;;;;;;17.17;9.00;;;4.80;99.90;;;;;;5035290;28;20431;-63
2022/01/12 08:04:05;;;;;;;11.40;10.00;;;4.80;99.90;;;;;;5034783;28;20481;-63
2022/01/12 08:06:33;;;;;;;19.43;10.50;;;4.80;99.90;;;;;;5034733;28;20449;-63
2022/01/12 08:09:00;;;;;;;13.87;10.90;;;4.80;99.90;;;;;;5035627;28;20438;-63
2022/01/12 08:11:28;;;;;;;13.40;9.00;;;4.90;99.90;;;;;;5034724;28;20431;-63
2022/01/12 08:13:56;;;;;;;18.00;10.80;;;4.90;99.90;;;;;;5034524;28;20960;-63
2022/01/12 08:16:23;;;;;;;18.43;12.30;;;4.90;99.90;;;;;;5034502;28;20473;-63
2022/01/12 08:18:50;;;;;;;17.73;9.10;;;4.90;99.90;;;;;;5034314;28;20492;-65
2022/01/12 08:21:19;;;;;;;13.97;9.90;;;4.90;99.90;;;;;;5034861;28;20438;-63
2022/01/12 08:23:56;;;;;;;14.23;10.20;;;4.90;99.90;;;;;;5034140;28;20481;-63
2022/01/12 08:26:23;;;;;;;16.73;10.00;;;4.90;99.90;;;;;;5034313;28;20889;-63
2022/01/12 08:28:51;;;;;;;16.37;9.40;;;4.90;99.90;;;;;;5034418;28;20453;-63
2022/01/12 08:31:20;;;;;;;21.70;11.70;;;5.00;99.90;;;;;;5034085;28;20537;-64
2022/01/12 08:33:54;;;;;;;19.33;9.67;;;5.00;99.90;;;;;;5033899;28;20901;-63
2022/01/12 08:36:23;;;;;;;14.57;10.20;;;5.00;99.90;;;;;;5033985;28;20439;-63
2022/01/12 08:38:57;;;;;;;12.50;8.60;;;5.00;99.90;;;;;;5033429;28;20438;-63
2022/01/12 08:41:25;;;;;;;14.50;10.60;;;5.00;99.90;;;;;;5033916;28;20194;-63
2022/01/12 08:43:52;;;;;;;15.60;10.97;;;5.00;99.90;;;;;;5034134;28;20517;-63
2022/01/12 08:46:19;;;;;;;19.80;10.13;;;5.00;99.90;;;;;;5033975;28;20457;-63
2022/01/12 08:48:47;;;;;;;23.20;12.77;;;5.00;99.90;;;;;;5034016;28;20450;-63
2022/01/12 08:51:17;;;;;;;13.33;10.70;;;5.10;99.90;;;;;;5033768;28;20458;-63
2022/01/12 08:53:48;;;;;;;16.10;10.03;;;5.10;99.90;;;;;;5033866;28;20462;-63
2022/01/12 08:56:15;;;;;;;16.70;10.50;;;5.10;99.90;;;;;;5034048;28;20463;-63
2022/01/12 08:58:43;;;;;;;16.80;10.77;;;5.10;99.90;;;;;;5033775;28;20489;-63
2022/01/12 09:01:13;;;;;;;16.87;11.73;;;5.20;99.90;;;;;;5033691;28;20430;-63
2022/01/12 09:03:43;;;;;;;14.73;11.00;;;5.20;99.90;;;;;;5033537;28;20482;-63
2022/01/12 09:06:11;;;;;;;20.17;10.50;;;5.20;99.90;;;;;;5033893;28;20481;-63
2022/01/12 09:08:42;;;;;;;24.13;11.97;;;5.20;99.90;;;;;;5033821;28;20457;-63
2022/01/12 09:11:14;;;;;;;20.00;10.97;;;5.10;99.90;;;;;;5033749;28;20445;-63
2022/01/12 09:13:44;;;;;;;21.57;12.47;;;5.10;99.90;;;;;;5033336;28;20477;-63
2022/01/12 09:16:14;;;;;;;23.47;12.57;;;5.10;99.90;;;;;;5033919;28;20476;-63
2022/01/12 09:18:43;;;;;;;22.17;12.27;;;5.10;99.90;;;;;;5033310;28;20470;-63
2022/01/12 09:21:10;;;;;;;17.67;11.97;;;5.10;99.90;;;;;;5033273;28;20454;-63
2022/01/12 09:23:43;;;;;;;19.87;11.93;;;5.00;99.90;;;;;;5033167;28;20884;-63
2022/01/12 09:26:12;;;;;;;19.37;11.73;;;5.00;99.90;;;;;;5033576;28;20433;-63
2022/01/12 09:28:40;;;;;;;26.17;12.87;;;4.90;99.90;;;;;;5033152;28;20439;-63
2022/01/12 09:31:10;;;;;;;23.17;13.13;;;4.90;99.90;;;;;;5033148;28;20463;-63
2022/01/12 09:33:37;;;;;;;25.30;12.97;;;4.90;99.90;;;;;;5033708;28;20494;-63
2022/01/12 09:36:05;;;;;;;32.97;15.23;;;4.90;99.90;;;;;;5033399;28;20545;-63
2022/01/12 09:38:33;;;;;;;27.37;13.70;;;4.90;99.90;;;;;;5033377;28;20485;-63
2022/01/12 09:41:04;;;;;;;26.43;14.10;;;4.90;99.90;;;;;;5033645;28;20516;-63
2022/01/12 09:43:36;;;;;;;30.90;14.30;;;4.80;99.90;;;;;;5032976;28;20474;-63
2022/01/12 09:46:04;;;;;;;26.93;13.67;;;4.80;99.90;;;;;;5033067;28;20801;-63
2022/01/12 09:48:36;;;;;;;23.43;13.20;;;4.70;99.90;;;;;;5033730;28;20442;-63
2022/01/12 09:51:06;;;;;;;32.53;14.83;;;4.80;99.90;;;;;;5037037;28;20446;-63
2022/01/12 09:53:35;;;;;;;27.50;14.10;;;4.70;99.90;;;;;;5037265;28;20470;-63
2022/01/12 09:56:07;;;;;;;26.43;15.47;;;4.70;99.90;;;;;;5037278;28;20453;-63
2022/01/12 09:58:36;;;;;;;28.90;14.47;;;4.70;99.90;;;;;;5037190;28;20960;-63
2022/01/12 10:01:05;;;;;;;34.70;14.33;;;4.70;99.90;;;;;;5037181;28;20469;-63
2022/01/12 10:03:32;;;;;;;37.53;17.20;;;4.70;99.90;;;;;;5036652;28;21028;-63
2022/01/12 10:06:00;;;;;;;23.90;14.93;;;4.70;99.90;;;;;;5037070;28;20454;-63
2022/01/12 10:08:55;;;;;;;28.40;16.57;;;4.70;99.90;;;;;;5037073;28;20489;-63
2022/01/12 10:11:41;;;;;;;34.07;17.00;;;4.80;99.90;;;;;;5036737;28;20489;-63
2022/01/12 10:14:19;;;;;;;26.33;17.00;;;4.90;99.90;;;;;;5033743;28;20472;-63
2022/01/12 10:16:59;;;;;;;32.10;16.20;;;4.90;99.90;;;;;;5036634;28;20434;-63
2022/01/12 10:19:36;;;;;;;33.80;16.63;;;5.00;99.90;;;;;;5035867;28;20489;-63
2022/01/12 10:22:05;;;;;;;35.57;16.30;;;5.00;99.90;;;;;;5036572;28;20798;-63
2022/01/12 10:24:36;;;;;;;43.33;17.93;;;5.00;99.90;;;;;;5036486;28;20489;-64
2022/01/12 10:27:11;;;;;;;39.03;17.90;;;5.00;99.90;;;;;;5036874;28;20403;-63
2022/01/12 10:29:40;;;;;;;35.03;17.07;;;5.00;99.90;;;;;;5036285;28;20446;-63
2022/01/12 10:32:09;;;;;;;36.33;17.47;;;5.00;99.90;;;;;;5036628;28;20458;-63
2022/01/12 10:34:43;;;;;;;34.40;17.33;;;5.00;99.90;;;;;;5036221;28;21063;-63
2022/01/12 10:37:12;;;;;;;36.67;16.20;;;5.00;99.90;;;;;;5036332;28;20466;-63
2022/01/12 10:39:41;;;;;;;39.00;17.50;;;5.10;99.90;;;;;;5036477;28;20876;-63
2022/01/12 10:42:13;;;;;;;37.17;16.80;;;5.00;99.90;;;;;;5036256;28;20900;-64
2022/01/12 10:44:43;;;;;;;41.00;18.10;;;5.00;99.90;;;;;;5036711;28;20501;-64
2022/01/12 10:47:13;;;;;;;36.87;18.73;;;5.10;99.90;;;;;;5036710;28;20454;-64
2022/01/12 10:49:46;;;;;;;44.00;18.03;;;5.10;99.90;;;;;;5037135;28;20929;-63
2022/01/12 10:52:17;;;;;;;46.57;18.57;;;5.20;99.90;;;;;;5037120;28;20427;-63
2022/01/12 10:54:54;;;;;;;40.37;19.70;;;5.20;99.90;;;;;;5036382;28;20841;-63
2022/01/12 10:57:24;;;;;;;38.47;18.87;;;5.30;99.90;;;;;;5036044;28;20984;-64
2022/01/12 11:00:10;;;;;;;41.23;18.50;;;5.30;99.90;;;;;;5036133;28;20956;-64
2022/01/12 11:02:40;;;;;;;44.43;19.50;;;5.30;99.90;;;;;;5035703;28;20447;-65
2022/01/12 11:05:09;;;;;;;46.67;21.23;;;5.30;99.90;;;;;;5035842;28;20534;-64
2022/01/12 11:07:37;;;;;;;44.43;18.77;;;5.40;99.90;;;;;;5035954;28;20986;-64
2022/01/12 11:10:11;;;;;;;46.27;22.40;;;5.30;99.90;;;;;;5035639;28;20783;-64
2022/01/12 11:12:39;;;;;;;44.53;19.90;;;5.30;99.90;;;;;;5035516;28;20437;-64
2022/01/12 11:15:12;;;;;;;51.97;22.97;;;5.20;99.90;;;;;;5035542;28;20977;-64
2022/01/12 11:17:40;;;;;;;53.17;22.50;;;5.20;99.90;;;;;;5035839;28;20449;-64
2022/01/12 11:20:16;;;;;;;50.47;23.07;;;5.20;99.90;;;;;;5035666;28;20489;-64
2022/01/12 11:22:55;;;;;;;45.37;22.53;;;5.20;99.90;;;;;;5034936;28;20454;-64
2022/01/12 11:25:28;;;;;;;50.43;22.30;;;5.20;99.90;;;;;;5035474;28;20470;-64
2022/01/12 11:28:11;;;;;;;60.57;24.97;;;5.00;99.90;;;;;;5035351;28;20434;-64
2022/01/12 11:30:42;;;;;;;59.70;24.70;;;5.00;99.90;;;;;;5035506;28;20442;-64
2022/01/12 11:33:13;;;;;;;60.33;24.10;;;5.00;99.90;;;;;;5035020;28;20466;-64
2022/01/12 11:35:43;;;;;;;59.00;26.03;;;5.10;99.90;;;;;;5035126;28;20431;-64
2022/01/12 11:38:23;;;;;;;48.43;24.80;;;5.20;99.90;;;;;;5035374;28;20442;-64
2022/01/12 11:40:53;;;;;;;58.60;24.40;;;5.30;99.90;;;;;;5035063;28;20423;-64
2022/01/12 11:43:25;;;;;;;53.17;24.63;;;5.30;99.90;;;;;;5035374;28;20477;-64
2022/01/12 11:46:06;;;;;;;54.23;25.57;;;5.30;99.90;;;;;;5034982;28;20435;-64
2022/01/12 11:48:36;;;;;;;47.43;24.10;;;5.40;99.90;;;;;;5034937;28;20915;-64
2022/01/12 11:51:04;;;;;;;61.23;25.90;;;5.40;99.90;;;;;;5034859;28;20450;-64
2022/01/12 11:53:32;;;;;;;60.83;24.97;;;5.40;99.90;;;;;;5034672;28;20838;-64
2022/01/12 11:56:14;;;;;;;58.83;26.40;;;5.50;99.90;;;;;;5034999;28;20952;-64
2022/01/12 11:59:09;;;;;;;57.97;25.43;;;5.40;99.90;;;;;;5034600;28;20451;-64
2022/01/12 12:01:51;;;;;;;56.43;25.23;;;5.40;99.90;;;;;;5021809;28;20504;-64
2022/01/12 12:04:28;;;;;;;62.13;26.47;;;5.50;99.90;;;;;;5034586;28;20462;-64
2022/01/12 12:07:06;;;;;;;64.03;28.40;;;5.40;99.90;;;;;;5034893;28;20430;-64
2022/01/12 12:09:41;;;;;;;68.30;29.70;;;5.50;99.90;;;;;;5034487;28;20442;-64
2022/01/12 12:12:18;;;;;;;60.00;26.20;;;5.50;99.90;;;;;;5033976;28;20426;-64
2022/01/12 12:14:48;;;;;;;72.43;30.13;;;5.50;99.90;;;;;;5034311;28;20467;-64
2022/01/12 12:17:18;;;;;;;68.37;28.87;;;5.50;99.90;;;;;;5034374;28;20947;-64
2022/01/12 12:19:48;;;;;;;71.87;30.03;;;5.50;99.90;;;;;;5034221;28;20487;-65
2022/01/12 12:22:19;;;;;;;63.17;28.80;;;5.50;99.90;;;;;;5034294;28;20435;-64
2022/01/12 12:24:57;;;;;;;65.80;28.40;;;5.60;99.90;;;;;;5034358;28;20569;-65
2022/01/12 12:27:27;;;;;;;60.67;27.10;;;5.60;99.90;;;;;;5034184;28;20796;-64
2022/01/12 12:29:56;;;;;;;62.40;29.43;;;5.70;99.90;;;;;;5034684;28;20450;-67
2022/01/12 12:32:35;;;;;;;82.03;30.50;;;5.70;99.90;;;;;;5034056;28;20526;-68
2022/01/12 12:35:07;;;;;;;60.27;27.40;;;5.80;99.90;;;;;;5034102;28;20431;-68
2022/01/12 12:37:37;;;;;;;58.20;26.30;;;5.80;99.90;;;;;;5034351;28;20470;-68
2022/01/12 12:40:26;;;;;;;59.53;26.10;;;5.80;99.90;;;;;;5033810;28;20548;-68
2022/01/12 12:43:08;;;;;;;63.40;26.47;;;5.90;99.90;;;;;;5034196;28;20799;-68
2022/01/12 12:45:44;;;;;;;58.27;25.43;;;5.90;99.90;;;;;;5034252;28;20815;-68
2022/01/12 12:48:25;;;;;;;47.10;24.33;;;6.00;99.90;;;;;;5033928;28;20442;-68
2022/01/12 12:51:02;;;;;;;48.90;22.90;;;6.00;99.90;;;;;;5033897;28;20426;-68
2022/01/12 12:53:30;;;;;;;56.70;25.83;;;6.00;99.90;;;;;;5033710;28;20477;-65
2022/01/12 12:55:58;;;;;;;63.80;24.80;;;6.10;99.90;;;;;;5033690;28;20446;-65
2022/01/12 12:58:29;;;;;;;59.43;26.03;;;6.00;99.90;;;;;;5033649;28;20451;-65
2022/01/12 13:01:06;;;;;;;51.43;25.77;;;6.10;99.90;;;;;;5033493;28;20474;-65
2022/01/12 13:03:36;;;;;;;52.77;22.43;;;6.10;99.90;;;;;;5033886;28;20509;-65
2022/01/12 13:06:03;;;;;;;43.80;22.17;;;6.20;99.90;;;;;;5033980;28;20435;-65
2022/01/12 13:08:31;;;;;;;49.40;25.07;;;6.10;99.90;;;;;;5033441;28;20454;-64
2022/01/12 13:11:06;;;;;;;49.17;26.30;;;6.20;99.90;;;;;;5033504;28;20447;-64
2022/01/12 13:13:36;;;;;;;53.03;25.07;;;6.20;99.90;;;;;;5033123;28;20528;-65
2022/01/12 13:16:07;;;;;;;53.63;26.10;;;6.20;99.90;;;;;;5033444;28;20541;-65
2022/01/12 13:18:40;;;;;;;46.90;25.40;;;6.20;99.90;;;;;;5033404;28;20514;-65
2022/01/12 13:21:07;;;;;;;53.10;26.00;;;6.20;99.90;;;;;;5033257;28;20466;-64
2022/01/12 13:23:39;;;;;;;57.57;27.13;;;6.20;99.90;;;;;;5032956;28;20521;-64
2022/01/12 13:26:08;;;;;;;56.53;27.50;;;6.10;99.90;;;;;;5033266;28;20430;-64
2022/01/12 13:28:37;;;;;;;52.30;26.63;;;6.10;99.90;;;;;;5033281;28;20462;-64
2022/01/12 13:31:08;;;;;;;49.10;25.70;;;6.10;99.90;;;;;;5033226;28;20453;-64
2022/01/12 13:33:39;;;;;;;59.27;28.60;;;6.10;99.90;;;;;;5033126;28;20473;-65
2022/01/12 13:36:14;;;;;;;49.47;25.73;;;6.10;99.90;;;;;;5033180;28;20437;-65
2022/01/12 13:38:47;;;;;;;64.37;28.00;;;6.20;99.90;;;;;;5033379;28;20442;-65
2022/01/12 13:41:22;;;;;;;58.37;25.93;;;6.20;99.90;;;;;;5033161;28;20466;-64
2022/01/12 13:43:56;;;;;;;57.30;27.73;;;6.20;99.90;;;;;;5033022;28;20564;-65
2022/01/12 13:46:31;;;;;;;54.20;25.93;;;6.20;99.90;;;;;;5033072;28;20441;-65
2022/01/12 13:51:58;;;;;;;59.70;27.50;;;6.30;99.90;;;;;;5032967;28;20968;-65
2022/01/12 13:54:30;;;;;;;56.67;25.80;;;6.30;99.90;;;;;;5033903;28;20470;-64
2022/01/12 13:56:59;;;;;;;57.90;27.43;;;6.30;99.90;;;;;;5034306;28;20434;-64
2022/01/12 13:59:37;;;;;;;54.70;27.00;;;6.30;99.90;;;;;;5033696;28;20478;-67
2022/01/12 14:02:14;;;;;;;66.90;32.25;;;6.20;99.90;;;;;;5033097;28;20483;-64
2022/01/12 14:04:47;;;;;;;51.33;28.70;;;6.30;99.90;;;;;;5033054;28;20234;-67
2022/01/12 14:07:23;;;;;;;54.07;27.50;;;6.30;99.90;;;;;;5032939;28;20430;-65
2022/01/12 14:09:54;;;;;;;54.07;27.43;;;6.30;99.90;;;;;;5032886;28;20435;-67
2022/01/12 14:12:38;;;;;;;55.87;25.70;;;6.20;99.90;;;;;;5032845;28;20442;-67
2022/01/12 14:15:08;;;;;;;54.20;26.00;;;6.30;99.90;;;;;;5032790;28;20497;-67
2022/01/12 14:17:39;;;;;;;55.77;25.80;;;6.20;99.90;;;;;;5032767;28;20441;-67